createdAt,value
2022-12-19T00:01:21.651Z,102175.41
2022-12-19T00:03:50.307Z,102165.00
2022-12-19T00:06:18.045Z,102169.16
2022-12-19T00:08:45.762Z,102167.22
2022-12-19T00:11:13.849Z,102171.69
2022-12-19T00:13:41.331Z,102167.41
2022-12-19T00:16:11.751Z,102164.69
2022-12-19T00:18:40.420Z,102162.38
2022-12-19T00:21:06.975Z,102170.91
2022-12-19T00:23:34.687Z,102173.66
2022-12-19T00:26:15.140Z,102160.91
2022-12-19T00:28:45.306Z,102154.13
2022-12-19T00:31:11.807Z,102145.50
2022-12-19T00:33:38.747Z,102135.91
2022-12-19T00:36:15.031Z,102142.28
2022-12-19T00:38:45.297Z,102138.75
2022-12-19T00:41:17.001Z,102132.78
2022-12-19T00:43:44.212Z,102134.72
2022-12-19T00:46:12.981Z,102128.25
2022-12-19T00:48:40.716Z,102127.53
2022-12-19T00:51:11.794Z,102122.41
2022-12-19T00:53:42.161Z,102120.84
2022-12-19T00:56:12.395Z,102113.31
2022-12-19T00:58:42.161Z,102119.19
2022-12-19T01:01:19.671Z,102125.09
2022-12-19T01:04:18.656Z,102129.19
2022-12-19T01:06:33.675Z,102115.56
2022-12-19T01:09:00.942Z,102113.81
2022-12-19T01:11:53.878Z,102107.91
2022-12-19T01:14:23.072Z,102104.63
2022-12-19T01:16:50.572Z,102105.63
2022-12-19T01:19:18.271Z,102109.13
2022-12-19T01:21:45.374Z,102108.97
2022-12-19T01:24:12.674Z,102106.28
2022-12-19T01:26:40.187Z,102108.13
2022-12-19T01:29:06.587Z,102097.31
2022-12-19T01:31:33.523Z,102094.03
2022-12-19T01:34:01.885Z,102098.19
2022-12-19T01:36:29.612Z,102096.38
2022-12-19T01:38:57.645Z,102093.00
2022-12-19T01:41:24.397Z,102085.31
2022-12-19T01:44:07.630Z,102079.47
2022-12-19T01:46:47.591Z,102076.13
2022-12-19T01:49:26.133Z,102073.63
2022-12-19T01:51:56.505Z,102072.78
2022-12-19T01:54:30.754Z,102071.00
2022-12-19T01:57:01.019Z,102069.16
2022-12-19T01:59:41.593Z,102073.50
2022-12-19T02:02:13.191Z,102068.50
2022-12-19T02:04:44.438Z,102065.28
2022-12-19T02:07:15.811Z,102066.28
2022-12-19T02:09:44.825Z,102052.59
2022-12-19T02:12:13.135Z,102050.28
2022-12-19T02:14:40.511Z,102042.56
2022-12-19T02:17:23.398Z,102030.50
2022-12-19T02:20:20.276Z,102033.19
2022-12-19T02:23:32.235Z,102016.28
2022-12-19T02:26:16.331Z,101997.44
2022-12-19T02:29:05.537Z,102005.16
2022-12-19T02:31:58.642Z,101994.94
2022-12-19T02:34:33.505Z,101995.88
2022-12-19T02:37:08.798Z,101997.44
2022-12-19T02:39:47.634Z,101994.13
2022-12-19T02:42:23.373Z,101985.56
2022-12-19T02:44:52.723Z,101994.28
2022-12-19T02:47:21.072Z,101996.13
2022-12-19T02:49:48.639Z,101996.16
2022-12-19T02:52:18.847Z,101997.16
2022-12-19T02:54:50.337Z,102004.00
2022-12-19T02:57:28.224Z,101999.69
2022-12-19T03:00:03.991Z,102009.88
2022-12-19T03:03:00.716Z,102000.25
2022-12-19T03:05:33.798Z,101994.25
2022-12-19T03:08:21.925Z,101984.88
2022-12-19T03:10:57.700Z,101974.69
2022-12-19T03:13:38.032Z,101979.94
2022-12-19T03:16:07.813Z,101980.84
2022-12-19T03:18:34.691Z,101969.69
2022-12-19T03:21:04.042Z,101969.56
2022-12-19T03:23:31.266Z,101966.03
2022-12-19T03:26:06.791Z,101965.25
2022-12-19T03:28:40.959Z,101955.16
2022-12-19T03:31:09.765Z,101954.34
2022-12-19T03:33:38.360Z,101956.09
2022-12-19T03:36:08.842Z,101947.50
2022-12-19T03:38:37.411Z,101943.19
2022-12-19T03:41:07.064Z,101932.22
2022-12-19T03:43:35.307Z,101936.69
2022-12-19T03:46:22.406Z,101932.47
2022-12-19T03:48:52.237Z,101935.72
2022-12-19T03:51:37.823Z,101940.84
2022-12-19T03:54:16.379Z,101937.41
2022-12-19T03:56:53.032Z,101927.13
2022-12-19T03:59:33.217Z,101922.03
2022-12-19T04:02:01.479Z,101922.00
2022-12-19T04:04:29.530Z,101923.66
2022-12-19T04:06:57.565Z,101914.13
2022-12-19T04:09:24.581Z,101902.16
2022-12-19T04:12:02.143Z,101900.50
2022-12-19T04:14:31.984Z,101897.72
2022-12-19T04:17:15.813Z,101905.31
2022-12-19T04:19:54.903Z,101905.59
2022-12-19T04:22:27.006Z,101888.66
2022-12-19T04:24:55.845Z,101881.09
2022-12-19T04:27:22.912Z,101884.50
2022-12-19T04:29:54.235Z,101886.31
2022-12-19T04:32:21.842Z,101882.84
2022-12-19T04:34:48.210Z,101878.63
2022-12-19T04:37:15.015Z,101875.22
2022-12-19T04:39:41.354Z,101866.69
2022-12-19T04:42:08.109Z,101867.56
2022-12-19T04:44:34.441Z,101854.56
2022-12-19T04:47:00.843Z,101853.63
2022-12-19T04:49:27.923Z,101853.69
2022-12-19T04:51:54.477Z,101846.94
2022-12-19T04:54:21.637Z,101836.66
2022-12-19T04:56:48.244Z,101821.31
2022-12-19T04:59:14.619Z,101823.03
2022-12-19T05:01:41.080Z,101809.38
2022-12-19T05:04:07.520Z,101818.13
2022-12-19T05:06:33.942Z,101806.94
2022-12-19T05:09:00.307Z,101801.84
2022-12-19T05:11:26.885Z,101807.94
2022-12-19T05:13:53.357Z,101804.63
2022-12-19T05:16:19.803Z,101813.22
2022-12-19T05:18:46.550Z,101813.88
2022-12-19T05:21:13.407Z,101799.44
2022-12-19T05:23:39.932Z,101789.28
2022-12-19T05:26:07.099Z,101788.53
2022-12-19T05:28:34.033Z,101787.75
2022-12-19T05:31:09.660Z,101772.28
2022-12-19T05:33:36.490Z,101777.41
2022-12-19T05:36:03.033Z,101785.09
2022-12-19T05:38:29.782Z,101780.91
2022-12-19T05:40:56.362Z,101769.06
2022-12-19T05:43:23.769Z,101770.06
2022-12-19T05:45:50.306Z,101777.00
2022-12-19T05:48:17.053Z,101772.75
2022-12-19T05:50:47.944Z,101775.50
2022-12-19T05:53:14.285Z,101778.00
2022-12-19T05:55:40.944Z,101774.41
2022-12-19T05:58:07.325Z,101780.56
2022-12-19T06:00:33.719Z,101769.66
2022-12-19T06:03:00.240Z,101761.06
2022-12-19T06:05:27.000Z,101762.81
2022-12-19T06:07:53.999Z,101758.63
2022-12-19T06:10:20.370Z,101761.31
2022-12-19T06:12:46.717Z,101745.78
2022-12-19T06:15:13.546Z,101736.38
2022-12-19T06:17:39.895Z,101724.47
2022-12-19T06:20:06.831Z,101724.59
2022-12-19T06:22:34.440Z,101720.41
2022-12-19T06:25:00.972Z,101722.19
2022-12-19T06:27:27.461Z,101711.09
2022-12-19T06:29:53.804Z,101713.69
2022-12-19T06:32:20.325Z,101700.81
2022-12-19T06:35:03.580Z,101705.06
2022-12-19T06:37:30.412Z,101699.94
2022-12-19T06:39:56.763Z,101714.59
2022-12-19T06:42:23.151Z,101705.00
2022-12-19T06:44:55.586Z,101707.53
2022-12-19T06:47:24.236Z,101705.69
2022-12-19T06:49:50.626Z,101706.59
2022-12-19T06:52:17.712Z,101710.06
2022-12-19T06:54:44.142Z,101693.66
2022-12-19T06:57:10.581Z,101703.13
2022-12-19T06:59:36.996Z,101697.97
2022-12-19T07:02:21.700Z,101707.59
2022-12-19T07:04:56.507Z,101701.72
2022-12-19T07:07:22.919Z,101701.72
2022-12-19T07:09:49.312Z,101700.03
2022-12-19T07:12:15.797Z,101685.41
2022-12-19T07:14:42.236Z,101691.59
2022-12-19T07:17:08.619Z,101682.13
2022-12-19T07:19:35.247Z,101683.94
2022-12-19T07:22:03.271Z,101684.00
2022-12-19T07:24:30.192Z,101689.19
2022-12-19T07:26:57.081Z,101693.34
2022-12-19T07:29:23.528Z,101690.84
2022-12-19T07:31:49.905Z,101678.84
2022-12-19T07:34:16.286Z,101684.22
2022-12-19T07:36:42.716Z,101677.44
2022-12-19T07:39:09.120Z,101674.06
2022-12-19T07:41:39.049Z,101674.94
2022-12-19T07:44:06.810Z,101682.78
2022-12-19T07:46:33.181Z,101682.94
2022-12-19T07:48:59.892Z,101678.50
2022-12-19T07:51:27.003Z,101678.59
2022-12-19T07:53:53.435Z,101677.84
2022-12-19T07:56:19.826Z,101676.94
2022-12-19T07:58:46.274Z,101674.34
2022-12-19T08:01:12.689Z,101671.75
2022-12-19T08:03:39.105Z,101675.25
2022-12-19T08:06:06.743Z,101668.38
2022-12-19T08:08:34.213Z,101673.56
2022-12-19T08:11:13.254Z,101678.00
2022-12-19T08:13:46.374Z,101685.72
2022-12-19T08:16:13.589Z,101679.66
2022-12-19T08:18:40.447Z,101679.56
2022-12-19T08:21:08.283Z,101679.53
2022-12-19T08:23:34.992Z,101672.66
2022-12-19T08:26:03.809Z,101665.94
2022-12-19T08:28:32.107Z,101666.06
2022-12-19T08:31:05.376Z,101658.34
2022-12-19T08:33:31.841Z,101645.44
2022-12-19T08:35:58.270Z,101646.34
2022-12-19T08:38:24.638Z,101641.25
2022-12-19T08:40:54.510Z,101635.16
2022-12-19T08:43:21.346Z,101639.53
2022-12-19T08:45:50.041Z,101636.97
2022-12-19T08:48:17.243Z,101638.56
2022-12-19T08:50:56.860Z,101636.81
2022-12-19T08:53:26.675Z,101634.22
2022-12-19T08:56:07.724Z,101640.22
2022-12-19T08:58:34.800Z,101627.16
2022-12-19T09:01:06.258Z,101635.81
2022-12-19T09:03:43.478Z,101623.88
2022-12-19T09:06:19.812Z,101628.91
2022-12-19T09:08:46.778Z,101627.31
2022-12-19T09:11:18.989Z,101624.81
2022-12-19T09:13:46.823Z,101625.81
2022-12-19T09:16:23.131Z,101626.66
2022-12-19T09:18:51.397Z,101625.63
2022-12-19T09:21:19.674Z,101626.50
2022-12-19T09:23:51.393Z,101627.50
2022-12-19T09:26:18.489Z,101628.25
2022-12-19T09:28:46.175Z,101628.25
2022-12-19T09:31:16.161Z,101620.56
2022-12-19T09:33:43.812Z,101621.38
2022-12-19T09:36:15.599Z,101608.59
2022-12-19T09:38:42.819Z,101611.19
2022-12-19T09:41:33.758Z,101600.03
2022-12-19T09:44:28.013Z,101606.97
2022-12-19T09:47:00.006Z,101604.25
2022-12-19T09:49:41.733Z,101599.94
2022-12-19T09:52:20.728Z,101595.56
2022-12-19T09:54:52.954Z,101598.16
2022-12-19T09:57:31.324Z,101586.09
2022-12-19T10:00:04.987Z,101587.78
2022-12-19T10:02:49.984Z,101578.25
2022-12-19T10:07:00.480Z,101580.00
2022-12-19T10:08:46.743Z,101576.47
2022-12-19T10:12:45.273Z,101570.47
2022-12-19T10:15:06.288Z,101570.31
2022-12-19T10:17:54.481Z,101569.44
2022-12-19T10:20:23.628Z,101565.22
2022-12-19T10:23:12.152Z,101562.69
2022-12-19T10:25:59.996Z,101559.34
2022-12-19T10:28:51.138Z,101561.97
2022-12-19T10:31:23.241Z,101562.06
2022-12-19T10:34:16.201Z,101546.63
2022-12-19T10:39:55.272Z,101555.38
2022-12-19T10:42:32.657Z,101550.22
2022-12-19T10:45:02.577Z,101541.63
2022-12-19T10:47:31.081Z,101530.50
2022-12-19T10:49:59.524Z,101533.13
2022-12-19T10:52:48.621Z,101528.84
2022-12-19T10:55:38.167Z,101528.91
2022-12-19T10:58:24.495Z,101531.56
2022-12-19T11:01:02.493Z,101519.59
2022-12-19T11:03:29.383Z,101523.06
2022-12-19T11:05:58.715Z,101521.34
2022-12-19T11:08:44.907Z,101516.22
2022-12-19T11:13:34.849Z,101511.09
2022-12-19T11:19:27.903Z,101505.06
2022-12-19T11:20:49.315Z,101495.66
2022-12-19T11:29:31.804Z,101495.91
2022-12-19T11:29:34.558Z,101487.34
2022-12-19T11:29:38.303Z,101501.75
2022-12-19T11:29:39.997Z,101497.47
2022-12-19T11:34:06.467Z,101477.09
2022-12-19T11:36:36.410Z,101481.47
2022-12-19T11:39:03.239Z,101477.13
2022-12-19T11:41:36.896Z,101481.47
2022-12-19T11:44:13.708Z,101471.19
2022-12-19T11:47:02.206Z,101479.81
2022-12-19T11:49:40.848Z,101468.59
2022-12-19T11:53:02.799Z,101468.56
2022-12-19T11:55:51.504Z,101461.69
2022-12-19T11:58:18.238Z,101460.84
2022-12-19T12:01:12.368Z,101453.06
2022-12-19T12:03:42.097Z,101453.97
2022-12-19T12:06:26.660Z,101454.03
2022-12-19T12:14:48.958Z,101447.16
2022-12-19T12:18:41.052Z,101454.13
2022-12-19T12:24:37.836Z,101451.53
2022-12-19T12:31:17.476Z,101439.53
2022-12-19T12:31:18.057Z,101448.09
2022-12-19T12:31:50.266Z,101435.25
2022-12-19T12:31:50.789Z,101432.66
2022-12-19T12:35:41.442Z,101427.53
2022-12-19T12:35:46.225Z,101431.00
2022-12-19T12:38:14.569Z,101423.25
2022-12-19T12:40:26.213Z,101432.81
2022-12-19T12:43:17.582Z,101425.09
2022-12-19T12:45:45.301Z,101426.00
2022-12-19T12:48:34.171Z,101421.72
2022-12-19T12:51:02.170Z,101418.25
2022-12-19T12:53:34.004Z,101407.91
2022-12-19T12:56:03.181Z,101414.81
2022-12-19T12:58:54.280Z,101412.28
2022-12-19T13:01:34.739Z,101406.28
2022-12-19T13:04:13.080Z,101408.03
2022-12-19T13:06:51.708Z,101407.19
2022-12-19T13:09:17.995Z,101405.47
2022-12-19T13:12:09.140Z,101403.81
2022-12-19T13:14:35.617Z,101400.38
2022-12-19T13:17:04.401Z,101393.50
2022-12-19T13:19:33.873Z,101392.66
2022-12-19T13:22:09.293Z,101390.13
2022-12-19T13:24:54.905Z,101384.97
2022-12-19T13:27:21.193Z,101384.09
2022-12-19T13:30:12.383Z,101383.28
2022-12-19T13:32:38.679Z,101383.28
2022-12-19T13:37:09.109Z,101386.78
2022-12-19T13:39:55.161Z,101382.47
2022-12-19T13:41:45.396Z,101386.78
2022-12-19T13:44:12.149Z,101382.47
2022-12-19T13:46:43.044Z,101386.81
2022-12-19T13:49:23.951Z,101389.44
2022-12-19T13:51:56.984Z,101392.03
2022-12-19T13:54:32.481Z,101388.63
2022-12-19T13:57:00.915Z,101395.53
2022-12-19T13:59:38.486Z,101397.31
2022-12-19T14:02:20.789Z,101393.00
2022-12-19T14:04:47.417Z,101394.72
2022-12-19T14:07:36.382Z,101389.53
2022-12-19T14:11:35.140Z,101384.41
2022-12-19T14:13:42.414Z,101387.84
2022-12-19T14:16:23.643Z,101377.50
2022-12-19T14:19:25.536Z,101368.84
2022-12-19T14:22:08.985Z,101373.22
2022-12-19T14:24:39.392Z,101378.44
2022-12-19T14:28:19.052Z,101372.38
2022-12-19T14:30:28.909Z,101365.47
2022-12-19T14:33:46.159Z,101363.78
2022-12-19T14:36:10.560Z,101367.22
2022-12-19T14:39:26.925Z,101368.13
2022-12-19T14:41:46.874Z,101375.91
2022-12-19T14:52:51.556Z,101382.84
2022-12-19T14:54:18.275Z,101373.34
2022-12-19T14:54:28.465Z,101379.47
2022-12-19T14:54:33.737Z,101371.69
2022-12-19T14:56:13.690Z,101366.53
2022-12-19T14:58:54.884Z,101376.94
2022-12-19T15:01:26.163Z,101362.25
2022-12-19T15:04:50.973Z,101363.13
2022-12-19T15:07:08.389Z,101372.63
2022-12-19T15:11:04.725Z,101377.84
2022-12-19T15:14:53.152Z,101364.00
2022-12-19T15:16:07.140Z,101366.56
2022-12-19T15:18:33.732Z,101360.53
2022-12-19T15:21:03.419Z,101371.75
2022-12-19T15:23:30.552Z,101354.44
2022-12-19T15:26:03.829Z,101356.16
2022-12-19T15:28:48.054Z,101356.16
2022-12-19T15:31:43.104Z,101355.28
2022-12-19T15:34:44.379Z,101353.56
2022-12-19T15:37:16.855Z,101344.91
2022-12-19T15:39:44.675Z,101350.09
2022-12-19T15:42:25.067Z,101344.03
2022-12-19T15:44:53.719Z,101341.44
2022-12-19T15:47:35.248Z,101333.63
2022-12-19T15:50:14.492Z,101337.97
2022-12-19T15:52:40.896Z,101330.16
2022-12-19T15:55:11.833Z,101333.63
2022-12-19T15:57:41.966Z,101332.72
2022-12-19T16:00:18.375Z,101326.66
2022-12-19T16:05:32.028Z,101307.63
2022-12-19T16:07:58.916Z,101304.16
2022-12-19T16:10:26.337Z,101304.13
2022-12-19T16:12:57.751Z,101304.13
2022-12-19T16:15:29.910Z,101316.25
2022-12-19T16:17:57.881Z,101315.41
2022-12-19T16:20:27.369Z,101317.13
2022-12-19T16:22:55.171Z,101314.50
2022-12-19T16:25:24.688Z,101317.09
2022-12-19T16:27:57.282Z,101305.84
2022-12-19T16:30:32.136Z,101294.56
2022-12-19T16:32:58.842Z,101293.69
2022-12-19T16:35:55.011Z,101291.09
2022-12-19T16:38:14.374Z,101304.97
2022-12-19T16:40:41.259Z,101287.63
2022-12-19T16:43:15.788Z,101292.81
2022-12-19T16:45:43.345Z,101290.22
2022-12-19T16:48:18.320Z,101287.59
2022-12-19T16:50:44.796Z,101298.84
2022-12-19T16:53:11.269Z,101294.53
2022-12-19T16:55:37.682Z,101301.47
2022-12-19T16:58:04.165Z,101295.38
2022-12-19T17:00:30.939Z,101300.56
2022-12-19T17:03:15.385Z,101297.94
2022-12-19T17:05:42.847Z,101297.94
2022-12-19T17:08:12.796Z,101291.00
2022-12-19T17:10:44.211Z,101285.78
2022-12-19T17:13:12.890Z,101284.03
2022-12-19T17:15:39.487Z,101286.66
2022-12-19T17:18:27.917Z,101279.69
2022-12-19T17:20:54.371Z,101293.56
2022-12-19T17:23:23.563Z,101286.59
2022-12-19T17:25:50.613Z,101293.59
2022-12-19T17:28:17.668Z,101290.97
2022-12-19T17:30:50.167Z,101302.22
2022-12-19T17:33:18.432Z,101287.47
2022-12-19T17:35:45.401Z,101295.28
2022-12-19T17:38:17.572Z,101303.09
2022-12-19T17:40:44.782Z,101300.44
2022-12-19T17:43:14.241Z,101294.34
2022-12-19T17:45:41.714Z,101290.00
2022-12-19T17:48:21.257Z,101288.28
2022-12-19T17:50:48.136Z,101287.44
2022-12-19T17:53:15.271Z,101281.34
2022-12-19T17:55:41.762Z,101303.00
2022-12-19T17:58:10.567Z,101288.28
2022-12-19T18:00:38.835Z,101294.34
2022-12-19T18:03:17.411Z,101288.28
2022-12-19T18:05:44.451Z,101287.41
2022-12-19T18:08:32.317Z,101291.75
2022-12-19T18:11:01.218Z,101294.34
2022-12-19T18:13:29.112Z,101303.88
2022-12-19T18:16:01.055Z,101295.25
2022-12-19T18:18:31.254Z,101312.56
2022-12-19T18:20:59.854Z,101291.75
2022-12-19T18:23:26.628Z,101290.84
2022-12-19T18:26:00.946Z,101295.19
2022-12-19T18:28:28.788Z,101294.31
2022-12-19T18:31:01.101Z,101288.22
2022-12-19T18:33:27.959Z,101283.03
2022-12-19T18:35:54.550Z,101296.03
2022-12-19T18:38:23.088Z,101293.44
2022-12-19T18:40:52.043Z,101270.84
2022-12-19T18:43:18.877Z,101291.66
2022-12-19T18:45:51.444Z,101281.22
2022-12-19T18:48:27.277Z,101270.81
2022-12-19T18:50:55.201Z,101282.09
2022-12-19T18:53:27.400Z,101275.19
2022-12-19T18:55:56.283Z,101282.97
2022-12-19T18:58:22.818Z,101286.41
2022-12-19T19:00:53.002Z,101281.22
2022-12-19T19:03:27.018Z,101282.91
2022-12-19T19:05:54.989Z,101307.22
2022-12-19T19:08:30.567Z,101301.16
2022-12-19T19:11:23.603Z,101315.06
2022-12-19T19:13:50.753Z,101303.78
2022-12-19T19:16:21.097Z,101314.16
2022-12-19T19:18:52.473Z,101292.47
2022-12-19T19:21:21.126Z,101295.94
2022-12-19T19:23:51.385Z,101305.47
2022-12-19T19:26:17.833Z,101314.13
2022-12-19T19:28:50.335Z,101298.50
2022-12-19T19:31:21.522Z,101308.03
2022-12-19T19:33:52.926Z,101301.97
2022-12-19T19:36:24.551Z,101298.47
2022-12-19T19:38:54.664Z,101304.56
2022-12-19T19:41:24.175Z,101310.59
2022-12-19T19:43:50.932Z,101307.13
2022-12-19T19:46:17.396Z,101287.13
2022-12-19T19:48:43.937Z,101272.41
2022-12-19T19:51:11.904Z,101281.06
2022-12-19T19:53:38.427Z,101267.19
2022-12-19T19:56:05.219Z,101268.91
2022-12-19T19:58:32.135Z,101272.38
2022-12-19T20:00:58.850Z,101283.59
2022-12-19T20:03:25.971Z,101287.06
2022-12-19T20:06:00.949Z,101292.25
2022-12-19T20:08:28.363Z,101296.56
2022-12-19T20:10:57.935Z,101289.59
2022-12-19T20:13:24.924Z,101289.56
2022-12-19T20:15:51.886Z,101284.38
2022-12-19T20:18:18.445Z,101296.47
2022-12-19T20:20:47.692Z,101299.94
2022-12-19T20:23:14.216Z,101293.81
2022-12-19T20:25:42.193Z,101292.97
2022-12-19T20:28:08.620Z,101304.22
2022-12-19T20:30:36.795Z,101292.03
2022-12-19T20:33:03.405Z,101295.50
2022-12-19T20:35:29.814Z,101303.28
2022-12-19T20:37:56.253Z,101303.25
2022-12-19T20:40:22.628Z,101304.06
2022-12-19T20:42:49.760Z,101291.06
2022-12-19T20:45:16.219Z,101304.06
2022-12-19T20:47:42.607Z,101292.75
2022-12-19T20:50:09.172Z,101293.59
2022-12-19T20:52:35.692Z,101289.28
2022-12-19T20:55:02.036Z,101297.09
2022-12-19T20:57:30.373Z,101285.78
2022-12-19T20:59:56.740Z,101280.50
2022-12-19T21:02:23.334Z,101291.78
2022-12-19T21:04:49.942Z,101276.16
2022-12-19T21:07:16.444Z,101282.22
2022-12-19T21:09:44.936Z,101292.63
2022-12-19T21:12:12.166Z,101287.44
2022-12-19T21:14:38.645Z,101283.97
2022-12-19T21:17:05.029Z,101298.72
2022-12-19T21:19:31.373Z,101299.56
2022-12-19T21:21:57.817Z,101312.56
2022-12-19T21:24:24.209Z,101289.97
2022-12-19T21:26:57.665Z,101294.31
2022-12-19T21:29:24.417Z,101296.94
2022-12-19T21:31:51.475Z,101295.22
2022-12-19T21:34:18.193Z,101300.41
2022-12-19T21:36:44.534Z,101298.69
2022-12-19T21:39:11.740Z,101296.06
2022-12-19T21:41:38.094Z,101297.78
2022-12-19T21:44:04.662Z,101295.13
2022-12-19T21:46:33.266Z,101276.84
2022-12-19T21:49:00.547Z,101281.19
2022-12-19T21:51:29.061Z,101283.78
2022-12-19T21:54:00.697Z,101290.72
2022-12-19T21:56:30.015Z,101288.13
2022-12-19T21:59:00.756Z,101278.59
2022-12-19T22:01:28.702Z,101286.44
2022-12-19T22:04:06.187Z,101276.06
2022-12-19T22:06:34.779Z,101273.50
2022-12-19T22:09:01.579Z,101273.53
2022-12-19T22:11:30.011Z,101252.72
2022-12-19T22:13:58.728Z,101272.75
2022-12-19T22:16:25.210Z,101264.06
2022-12-19T22:18:52.886Z,101264.06
2022-12-19T22:21:20.151Z,101255.41
2022-12-19T22:23:46.616Z,101260.59
2022-12-19T22:26:22.051Z,101260.63
2022-12-19T22:28:51.271Z,101275.34
2022-12-19T22:31:38.300Z,101268.38
2022-12-19T22:34:07.700Z,101266.56
2022-12-19T22:36:35.616Z,101263.91
2022-12-19T22:39:04.501Z,101267.34
2022-12-19T22:41:32.472Z,101261.28
2022-12-19T22:43:58.901Z,101269.13
2022-12-19T22:46:31.808Z,101269.94
2022-12-19T22:49:00.480Z,101280.41
2022-12-19T22:51:28.192Z,101282.16
2022-12-19T22:53:55.048Z,101278.69
2022-12-19T22:56:24.805Z,101282.16
2022-12-19T22:58:53.211Z,101274.31
2022-12-19T23:01:26.006Z,101267.34
2022-12-19T23:03:54.364Z,101271.72
2022-12-19T23:06:21.798Z,101261.31
2022-12-19T23:08:48.770Z,101275.22
2022-12-19T23:11:18.750Z,101270.03
2022-12-19T23:13:46.811Z,101274.38
2022-12-19T23:16:13.660Z,101269.13
2022-12-19T23:18:40.793Z,101268.25
2022-12-19T23:21:13.377Z,101267.34
2022-12-19T23:23:43.649Z,101260.31
2022-12-19T23:26:15.830Z,101262.88
2022-12-19T23:28:44.229Z,101263.72
2022-12-19T23:31:14.765Z,101259.38
2022-12-19T23:33:41.325Z,101255.03
2022-12-19T23:36:08.210Z,101262.84
2022-12-19T23:38:34.640Z,101258.50
2022-12-19T23:41:06.203Z,101264.56
2022-12-19T23:43:34.038Z,101266.25
2022-12-19T23:46:08.163Z,101261.88
2022-12-19T23:48:34.785Z,101262.72
2022-12-19T23:51:04.519Z,101251.44
2022-12-19T23:53:32.395Z,101250.56
2022-12-19T23:55:59.115Z,101251.44
2022-12-19T23:58:25.629Z,101257.53
